sensor_id;sensor_type;location;lat;lon;timestamp;temperature;humidity
42147;DHT22;27815;43.410;11.852;2023-09-18T00:02:22;21.80;64.30
42147;DHT22;27815;43.410;11.852;2023-09-18T00:06:27;21.80;64.20
42147;DHT22;27815;43.410;11.852;2023-09-18T00:10:31;21.80;64.20
42147;DHT22;27815;43.410;11.852;2023-09-18T00:14:37;21.80;64.20
42147;DHT22;27815;43.410;11.852;2023-09-18T00:18:41;21.70;64.20
42147;DHT22;27815;43.410;11.852;2023-09-18T00:22:44;21.70;64.40
42147;DHT22;27815;43.410;11.852;2023-09-18T00:26:48;21.50;64.70
42147;DHT22;27815;43.410;11.852;2023-09-18T00:30:51;21.50;64.60
42147;DHT22;27815;43.410;11.852;2023-09-18T00:34:54;21.40;64.80
42147;DHT22;27815;43.410;11.852;2023-09-18T00:38:57;21.30;64.60
42147;DHT22;27815;43.410;11.852;2023-09-18T00:43:00;21.20;64.50
42147;DHT22;27815;43.410;11.852;2023-09-18T00:47:03;21.20;64.70
42147;DHT22;27815;43.410;11.852;2023-09-18T00:51:07;21.20;64.90
42147;DHT22;27815;43.410;11.852;2023-09-18T00:55:11;21.20;64.90
42147;DHT22;27815;43.410;11.852;2023-09-18T00:59:15;21.20;65.00
42147;DHT22;27815;43.410;11.852;2023-09-18T01:03:23;21.20;65.20
42147;DHT22;27815;43.410;11.852;2023-09-18T01:07:34;21.30;65.40
42147;DHT22;27815;43.410;11.852;2023-09-18T01:16:10;21.20;65.20
42147;DHT22;27815;43.410;11.852;2023-09-18T01:20:15;21.10;65.30
42147;DHT22;27815;43.410;11.852;2023-09-18T01:24:18;21.00;65.50
42147;DHT22;27815;43.410;11.852;2023-09-18T01:28:23;21.00;65.60
42147;DHT22;27815;43.410;11.852;2023-09-18T01:32:29;20.80;65.80
42147;DHT22;27815;43.410;11.852;2023-09-18T01:36:34;20.80;66.20
42147;DHT22;27815;43.410;11.852;2023-09-18T01:40:38;20.80;66.20
42147;DHT22;27815;43.410;11.852;2023-09-18T01:44:43;20.60;66.70
42147;DHT22;27815;43.410;11.852;2023-09-18T01:48:47;20.50;67.00
42147;DHT22;27815;43.410;11.852;2023-09-18T01:52:52;20.50;67.30
42147;DHT22;27815;43.410;11.852;2023-09-18T01:56:55;20.40;67.50
42147;DHT22;27815;43.410;11.852;2023-09-18T02:01:00;20.40;67.60
42147;DHT22;27815;43.410;11.852;2023-09-18T02:05:04;20.50;67.70
42147;DHT22;27815;43.410;11.852;2023-09-18T02:09:12;20.50;67.60
42147;DHT22;27815;43.410;11.852;2023-09-18T02:13:15;20.50;67.60
42147;DHT22;27815;43.410;11.852;2023-09-18T02:17:19;20.60;67.30
42147;DHT22;27815;43.410;11.852;2023-09-18T02:21:31;20.70;67.10
42147;DHT22;27815;43.410;11.852;2023-09-18T02:25:37;20.80;67.10
42147;DHT22;27815;43.410;11.852;2023-09-18T02:29:40;20.90;66.90
42147;DHT22;27815;43.410;11.852;2023-09-18T02:33:43;21.00;66.80
42147;DHT22;27815;43.410;11.852;2023-09-18T02:37:46;21.00;66.60
42147;DHT22;27815;43.410;11.852;2023-09-18T02:42:06;21.00;66.50
42147;DHT22;27815;43.410;11.852;2023-09-18T02:46:09;21.00;66.60
42147;DHT22;27815;43.410;11.852;2023-09-18T02:50:14;20.90;67.10
42147;DHT22;27815;43.410;11.852;2023-09-18T02:54:17;20.90;67.20
42147;DHT22;27815;43.410;11.852;2023-09-18T02:58:21;20.90;67.30
42147;DHT22;27815;43.410;11.852;2023-09-18T03:02:25;20.90;67.30
42147;DHT22;27815;43.410;11.852;2023-09-18T03:06:31;20.70;67.60
42147;DHT22;27815;43.410;11.852;2023-09-18T03:10:37;20.80;67.60
42147;DHT22;27815;43.410;11.852;2023-09-18T03:14:40;20.80;67.70
42147;DHT22;27815;43.410;11.852;2023-09-18T03:18:44;20.70;67.80
42147;DHT22;27815;43.410;11.852;2023-09-18T03:22:47;20.70;67.80
42147;DHT22;27815;43.410;11.852;2023-09-18T03:26:56;20.60;68.00
42147;DHT22;27815;43.410;11.852;2023-09-18T03:31:00;20.60;68.00
42147;DHT22;27815;43.410;11.852;2023-09-18T03:35:04;20.60;68.00
42147;DHT22;27815;43.410;11.852;2023-09-18T03:39:07;20.60;68.20
42147;DHT22;27815;43.410;11.852;2023-09-18T03:43:11;20.60;68.20
42147;DHT22;27815;43.410;11.852;2023-09-18T03:47:17;20.50;68.30
42147;DHT22;27815;43.410;11.852;2023-09-18T03:51:20;20.50;68.40
42147;DHT22;27815;43.410;11.852;2023-09-18T03:55:25;20.50;68.40
42147;DHT22;27815;43.410;11.852;2023-09-18T03:59:30;20.40;68.50
42147;DHT22;27815;43.410;11.852;2023-09-18T04:03:35;20.40;68.60
42147;DHT22;27815;43.410;11.852;2023-09-18T04:08:01;20.20;68.80
42147;DHT22;27815;43.410;11.852;2023-09-18T04:12:18;20.20;68.80
42147;DHT22;27815;43.410;11.852;2023-09-18T04:16:21;20.20;68.80
42147;DHT22;27815;43.410;11.852;2023-09-18T04:20:25;20.10;68.80
42147;DHT22;27815;43.410;11.852;2023-09-18T04:24:31;20.10;68.90
42147;DHT22;27815;43.410;11.852;2023-09-18T04:28:36;20.10;69.00
42147;DHT22;27815;43.410;11.852;2023-09-18T04:32:41;20.00;69.20
42147;DHT22;27815;43.410;11.852;2023-09-18T04:36:45;19.90;69.50
42147;DHT22;27815;43.410;11.852;2023-09-18T04:40:58;19.90;69.60
42147;DHT22;27815;43.410;11.852;2023-09-18T04:45:04;19.80;69.40
42147;DHT22;27815;43.410;11.852;2023-09-18T04:49:08;19.70;69.50
42147;DHT22;27815;43.410;11.852;2023-09-18T04:53:13;19.70;69.50
42147;DHT22;27815;43.410;11.852;2023-09-18T04:57:16;19.60;69.60
42147;DHT22;27815;43.410;11.852;2023-09-18T05:01:22;19.70;69.70
42147;DHT22;27815;43.410;11.852;2023-09-18T05:05:25;19.70;69.70
42147;DHT22;27815;43.410;11.852;2023-09-18T05:09:32;19.80;69.70
42147;DHT22;27815;43.410;11.852;2023-09-18T05:13:42;19.80;69.80
42147;DHT22;27815;43.410;11.852;2023-09-18T05:17:48;19.90;69.70
42147;DHT22;27815;43.410;11.852;2023-09-18T05:21:55;20.00;69.70
42147;DHT22;27815;43.410;11.852;2023-09-18T05:26:01;20.00;69.60
42147;DHT22;27815;43.410;11.852;2023-09-18T05:30:18;20.00;69.60
42147;DHT22;27815;43.410;11.852;2023-09-18T05:34:35;20.10;69.60
42147;DHT22;27815;43.410;11.852;2023-09-18T05:38:41;20.00;69.80
42147;DHT22;27815;43.410;11.852;2023-09-18T05:42:54;20.00;69.80
42147;DHT22;27815;43.410;11.852;2023-09-18T05:46:57;20.00;69.80
42147;DHT22;27815;43.410;11.852;2023-09-18T05:51:03;20.20;69.70
42147;DHT22;27815;43.410;11.852;2023-09-18T05:55:07;20.30;69.60
42147;DHT22;27815;43.410;11.852;2023-09-18T05:59:11;20.20;69.90
42147;DHT22;27815;43.410;11.852;2023-09-18T06:03:15;20.20;70.10
42147;DHT22;27815;43.410;11.852;2023-09-18T06:07:24;20.20;70.10
42147;DHT22;27815;43.410;11.852;2023-09-18T06:11:31;20.30;70.10
42147;DHT22;27815;43.410;11.852;2023-09-18T06:15:49;20.40;70.00
42147;DHT22;27815;43.410;11.852;2023-09-18T06:19:53;20.50;70.10
42147;DHT22;27815;43.410;11.852;2023-09-18T06:24:04;20.60;70.00
42147;DHT22;27815;43.410;11.852;2023-09-18T06:28:15;20.90;69.90
42147;DHT22;27815;43.410;11.852;2023-09-18T06:32:19;21.20;69.50
42147;DHT22;27815;43.410;11.852;2023-09-18T06:36:23;21.50;68.90
42147;DHT22;27815;43.410;11.852;2023-09-18T06:40:29;21.90;68.50
42147;DHT22;27815;43.410;11.852;2023-09-18T06:44:37;22.10;67.90
42147;DHT22;27815;43.410;11.852;2023-09-18T06:48:41;22.50;67.40
42147;DHT22;27815;43.410;11.852;2023-09-18T06:52:52;22.80;66.80
42147;DHT22;27815;43.410;11.852;2023-09-18T06:56:56;23.00;66.30
42147;DHT22;27815;43.410;11.852;2023-09-18T07:00:59;23.40;65.90
42147;DHT22;27815;43.410;11.852;2023-09-18T07:05:06;23.70;65.20
42147;DHT22;27815;43.410;11.852;2023-09-18T07:09:09;24.00;64.30
42147;DHT22;27815;43.410;11.852;2023-09-18T07:13:16;24.20;64.10
42147;DHT22;27815;43.410;11.852;2023-09-18T07:17:36;24.50;64.00
42147;DHT22;27815;43.410;11.852;2023-09-18T07:21:40;24.60;63.40
42147;DHT22;27815;43.410;11.852;2023-09-18T07:25:50;24.70;63.40
42147;DHT22;27815;43.410;11.852;2023-09-18T07:29:55;24.90;62.70
42147;DHT22;27815;43.410;11.852;2023-09-18T07:34:02;25.00;62.30
42147;DHT22;27815;43.410;11.852;2023-09-18T07:38:09;25.00;62.40
42147;DHT22;27815;43.410;11.852;2023-09-18T07:42:21;25.20;61.60
42147;DHT22;27815;43.410;11.852;2023-09-18T07:46:26;25.30;60.90
42147;DHT22;27815;43.410;11.852;2023-09-18T07:50:48;25.40;60.70
42147;DHT22;27815;43.410;11.852;2023-09-18T07:54:56;25.50;60.40
42147;DHT22;27815;43.410;11.852;2023-09-18T07:59:03;25.60;60.70
42147;DHT22;27815;43.410;11.852;2023-09-18T08:03:08;25.60;61.20
42147;DHT22;27815;43.410;11.852;2023-09-18T08:07:20;25.70;61.30
42147;DHT22;27815;43.410;11.852;2023-09-18T08:11:26;25.70;61.10
42147;DHT22;27815;43.410;11.852;2023-09-18T08:15:53;25.70;61.30
42147;DHT22;27815;43.410;11.852;2023-09-18T08:20:00;25.90;61.00
42147;DHT22;27815;43.410;11.852;2023-09-18T08:24:06;26.10;60.60
42147;DHT22;27815;43.410;11.852;2023-09-18T08:28:10;26.40;59.60
42147;DHT22;27815;43.410;11.852;2023-09-18T08:32:26;26.50;56.80
42147;DHT22;27815;43.410;11.852;2023-09-18T08:36:36;26.50;55.20
42147;DHT22;27815;43.410;11.852;2023-09-18T08:40:41;26.50;52.50
42147;DHT22;27815;43.410;11.852;2023-09-18T08:44:50;26.70;52.20
42147;DHT22;27815;43.410;11.852;2023-09-18T08:48:54;26.90;52.30
42147;DHT22;27815;43.410;11.852;2023-09-18T08:53:21;27.00;52.40
42147;DHT22;27815;43.410;11.852;2023-09-18T08:57:24;27.10;52.20
42147;DHT22;27815;43.410;11.852;2023-09-18T09:01:32;27.20;52.40
42147;DHT22;27815;43.410;11.852;2023-09-18T09:05:35;27.40;51.50
42147;DHT22;27815;43.410;11.852;2023-09-18T09:09:40;27.50;51.50
42147;DHT22;27815;43.410;11.852;2023-09-18T09:14:11;27.60;50.80
42147;DHT22;27815;43.410;11.852;2023-09-18T09:18:19;27.80;50.40
42147;DHT22;27815;43.410;11.852;2023-09-18T09:22:24;27.90;50.20
42147;DHT22;27815;43.410;11.852;2023-09-18T09:26:27;28.10;50.00
42147;DHT22;27815;43.410;11.852;2023-09-18T09:30:35;28.30;49.30
42147;DHT22;27815;43.410;11.852;2023-09-18T09:34:58;28.40;48.90
42147;DHT22;27815;43.410;11.852;2023-09-18T09:39:06;28.40;48.60
42147;DHT22;27815;43.410;11.852;2023-09-18T09:43:21;28.40;48.20
42147;DHT22;27815;43.410;11.852;2023-09-18T09:47:26;28.50;47.80
42147;DHT22;27815;43.410;11.852;2023-09-18T09:51:31;28.50;47.20
42147;DHT22;27815;43.410;11.852;2023-09-18T09:55:35;28.50;46.90
42147;DHT22;27815;43.410;11.852;2023-09-18T09:59:40;28.60;46.80
42147;DHT22;27815;43.410;11.852;2023-09-18T10:03:48;28.60;46.60
42147;DHT22;27815;43.410;11.852;2023-09-18T10:07:52;28.70;46.40
42147;DHT22;27815;43.410;11.852;2023-09-18T10:11:57;28.80;46.40
42147;DHT22;27815;43.410;11.852;2023-09-18T10:16:11;28.90;45.90
42147;DHT22;27815;43.410;11.852;2023-09-18T10:20:16;29.00;45.50
42147;DHT22;27815;43.410;11.852;2023-09-18T10:24:28;29.00;45.50
42147;DHT22;27815;43.410;11.852;2023-09-18T10:28:34;29.20;45.40
42147;DHT22;27815;43.410;11.852;2023-09-18T10:32:40;29.40;45.40
42147;DHT22;27815;43.410;11.852;2023-09-18T10:36:47;29.50;44.70
42147;DHT22;27815;43.410;11.852;2023-09-18T10:40:52;29.50;44.00
42147;DHT22;27815;43.410;11.852;2023-09-18T10:44:56;29.50;43.70
42147;DHT22;27815;43.410;11.852;2023-09-18T10:49:03;29.50;43.00
42147;DHT22;27815;43.410;11.852;2023-09-18T10:53:08;29.50;43.50
42147;DHT22;27815;43.410;11.852;2023-09-18T10:57:12;29.40;41.40
42147;DHT22;27815;43.410;11.852;2023-09-18T11:01:17;29.30;40.90
42147;DHT22;27815;43.410;11.852;2023-09-18T11:05:35;29.40;40.00
42147;DHT22;27815;43.410;11.852;2023-09-18T11:09:45;29.30;40.20
42147;DHT22;27815;43.410;11.852;2023-09-18T11:13:51;29.40;40.00
42147;DHT22;27815;43.410;11.852;2023-09-18T11:17:59;29.50;39.40
42147;DHT22;27815;43.410;11.852;2023-09-18T11:22:09;29.50;38.90
42147;DHT22;27815;43.410;11.852;2023-09-18T11:26:20;29.50;38.80
42147;DHT22;27815;43.410;11.852;2023-09-18T11:30:26;29.30;38.70
42147;DHT22;27815;43.410;11.852;2023-09-18T11:34:31;29.30;39.30
42147;DHT22;27815;43.410;11.852;2023-09-18T11:47:26;29.40;40.00
42147;DHT22;27815;43.410;11.852;2023-09-18T11:51:30;29.30;40.40
42147;DHT22;27815;43.410;11.852;2023-09-18T11:55:33;29.30;40.90
42147;DHT22;27815;43.410;11.852;2023-09-18T11:59:39;29.40;40.80
42147;DHT22;27815;43.410;11.852;2023-09-18T12:03:45;29.40;40.70
42147;DHT22;27815;43.410;11.852;2023-09-18T12:07:50;29.40;40.30
42147;DHT22;27815;43.410;11.852;2023-09-18T12:11:53;29.30;40.80
42147;DHT22;27815;43.410;11.852;2023-09-18T12:16:03;29.20;40.90
42147;DHT22;27815;43.410;11.852;2023-09-18T12:20:15;29.20;40.60
42147;DHT22;27815;43.410;11.852;2023-09-18T12:24:22;29.10;40.50
42147;DHT22;27815;43.410;11.852;2023-09-18T12:28:26;29.10;40.70
42147;DHT22;27815;43.410;11.852;2023-09-18T12:32:37;29.20;40.90
42147;DHT22;27815;43.410;11.852;2023-09-18T12:36:44;29.30;41.00
42147;DHT22;27815;43.410;11.852;2023-09-18T12:40:50;29.30;41.10
42147;DHT22;27815;43.410;11.852;2023-09-18T12:44:54;29.40;41.10
42147;DHT22;27815;43.410;11.852;2023-09-18T12:48:57;29.40;41.20
42147;DHT22;27815;43.410;11.852;2023-09-18T12:53:23;29.30;41.20
42147;DHT22;27815;43.410;11.852;2023-09-18T12:57:26;29.20;41.60
42147;DHT22;27815;43.410;11.852;2023-09-18T13:01:29;29.20;41.80
42147;DHT22;27815;43.410;11.852;2023-09-18T13:05:32;29.20;42.20
42147;DHT22;27815;43.410;11.852;2023-09-18T13:09:37;29.30;42.60
42147;DHT22;27815;43.410;11.852;2023-09-18T13:13:42;29.40;42.50
42147;DHT22;27815;43.410;11.852;2023-09-18T13:17:52;29.50;42.60
42147;DHT22;27815;43.410;11.852;2023-09-18T13:21:58;29.50;42.40
42147;DHT22;27815;43.410;11.852;2023-09-18T13:26:04;29.50;42.30
42147;DHT22;27815;43.410;11.852;2023-09-18T13:30:09;29.50;42.30
42147;DHT22;27815;43.410;11.852;2023-09-18T13:34:13;29.50;42.80
42147;DHT22;27815;43.410;11.852;2023-09-18T13:38:23;29.50;42.10
42147;DHT22;27815;43.410;11.852;2023-09-18T13:42:29;29.40;42.00
42147;DHT22;27815;43.410;11.852;2023-09-18T13:46:37;29.30;42.60
42147;DHT22;27815;43.410;11.852;2023-09-18T13:50:42;29.30;43.00
42147;DHT22;27815;43.410;11.852;2023-09-18T13:54:53;29.10;43.40
42147;DHT22;27815;43.410;11.852;2023-09-18T13:58:58;29.00;43.70
42147;DHT22;27815;43.410;11.852;2023-09-18T14:03:07;28.90;44.20
42147;DHT22;27815;43.410;11.852;2023-09-18T14:07:12;28.80;44.10
42147;DHT22;27815;43.410;11.852;2023-09-18T14:11:17;28.70;44.30
42147;DHT22;27815;43.410;11.852;2023-09-18T14:15:22;28.60;44.40
42147;DHT22;27815;43.410;11.852;2023-09-18T14:19:27;28.50;44.70
42147;DHT22;27815;43.410;11.852;2023-09-18T14:23:35;28.50;44.80
42147;DHT22;27815;43.410;11.852;2023-09-18T14:27:41;28.50;44.90
42147;DHT22;27815;43.410;11.852;2023-09-18T14:31:44;28.60;44.60
42147;DHT22;27815;43.410;11.852;2023-09-18T14:35:48;28.60;44.40
42147;DHT22;27815;43.410;11.852;2023-09-18T14:39:56;28.50;44.50
42147;DHT22;27815;43.410;11.852;2023-09-18T14:43:59;28.50;44.50
42147;DHT22;27815;43.410;11.852;2023-09-18T14:48:05;28.50;44.20
42147;DHT22;27815;43.410;11.852;2023-09-18T14:52:09;28.60;43.90
42147;DHT22;27815;43.410;11.852;2023-09-18T14:56:18;28.70;43.70
42147;DHT22;27815;43.410;11.852;2023-09-18T15:00:36;28.80;43.60
42147;DHT22;27815;43.410;11.852;2023-09-18T15:04:45;28.80;43.50
42147;DHT22;27815;43.410;11.852;2023-09-18T15:08:51;28.90;43.10
42147;DHT22;27815;43.410;11.852;2023-09-18T15:12:54;28.90;43.20
42147;DHT22;27815;43.410;11.852;2023-09-18T15:17:23;28.90;42.60
42147;DHT22;27815;43.410;11.852;2023-09-18T15:21:27;28.90;42.40
42147;DHT22;27815;43.410;11.852;2023-09-18T15:25:35;29.00;42.40
42147;DHT22;27815;43.410;11.852;2023-09-18T15:29:42;29.00;42.60
42147;DHT22;27815;43.410;11.852;2023-09-18T15:33:50;29.00;42.90
42147;DHT22;27815;43.410;11.852;2023-09-18T15:38:05;29.00;43.00
42147;DHT22;27815;43.410;11.852;2023-09-18T15:42:23;28.90;43.20
42147;DHT22;27815;43.410;11.852;2023-09-18T15:46:28;28.80;43.60
42147;DHT22;27815;43.410;11.852;2023-09-18T15:50:47;28.70;43.90
42147;DHT22;27815;43.410;11.852;2023-09-18T15:55:01;28.60;43.80
42147;DHT22;27815;43.410;11.852;2023-09-18T15:59:06;28.50;44.00
42147;DHT22;27815;43.410;11.852;2023-09-18T16:03:11;28.50;44.20
42147;DHT22;27815;43.410;11.852;2023-09-18T16:07:17;28.50;44.40
42147;DHT22;27815;43.410;11.852;2023-09-18T16:11:20;28.40;44.50
42147;DHT22;27815;43.410;11.852;2023-09-18T16:15:23;28.40;44.60
42147;DHT22;27815;43.410;11.852;2023-09-18T16:19:32;28.30;44.90
42147;DHT22;27815;43.410;11.852;2023-09-18T16:23:34;28.20;45.20
42147;DHT22;27815;43.410;11.852;2023-09-18T16:27:40;28.10;45.50
42147;DHT22;27815;43.410;11.852;2023-09-18T16:31:47;28.00;45.80
42147;DHT22;27815;43.410;11.852;2023-09-18T16:35:50;28.00;46.20
42147;DHT22;27815;43.410;11.852;2023-09-18T16:39:53;27.90;46.50
42147;DHT22;27815;43.410;11.852;2023-09-18T16:43:56;27.80;47.00
42147;DHT22;27815;43.410;11.852;2023-09-18T16:48:00;27.70;47.60
42147;DHT22;27815;43.410;11.852;2023-09-18T16:52:04;27.60;48.10
42147;DHT22;27815;43.410;11.852;2023-09-18T16:56:07;27.50;48.70
42147;DHT22;27815;43.410;11.852;2023-09-18T17:00:10;27.50;49.20
42147;DHT22;27815;43.410;11.852;2023-09-18T17:04:14;27.40;49.90
42147;DHT22;27815;43.410;11.852;2023-09-18T17:08:17;27.40;50.30
42147;DHT22;27815;43.410;11.852;2023-09-18T17:12:22;27.30;50.60
42147;DHT22;27815;43.410;11.852;2023-09-18T17:16:25;27.30;51.00
42147;DHT22;27815;43.410;11.852;2023-09-18T17:20:29;27.20;51.40
42147;DHT22;27815;43.410;11.852;2023-09-18T17:24:34;27.10;51.80
42147;DHT22;27815;43.410;11.852;2023-09-18T17:28:41;27.00;52.20
42147;DHT22;27815;43.410;11.852;2023-09-18T17:32:43;27.00;52.50
42147;DHT22;27815;43.410;11.852;2023-09-18T17:36:47;27.00;52.80
42147;DHT22;27815;43.410;11.852;2023-09-18T17:40:50;26.90;53.10
42147;DHT22;27815;43.410;11.852;2023-09-18T17:44:57;26.80;53.60
42147;DHT22;27815;43.410;11.852;2023-09-18T17:49:00;26.70;54.10
42147;DHT22;27815;43.410;11.852;2023-09-18T17:53:04;26.60;54.30
42147;DHT22;27815;43.410;11.852;2023-09-18T17:57:09;26.50;54.30
42147;DHT22;27815;43.410;11.852;2023-09-18T18:01:12;26.50;54.10
42147;DHT22;27815;43.410;11.852;2023-09-18T18:05:17;26.50;53.80
42147;DHT22;27815;43.410;11.852;2023-09-18T18:09:25;26.40;53.30
42147;DHT22;27815;43.410;11.852;2023-09-18T18:13:29;26.40;52.80
42147;DHT22;27815;43.410;11.852;2023-09-18T18:17:34;26.30;52.40
42147;DHT22;27815;43.410;11.852;2023-09-18T18:21:40;26.30;52.30
42147;DHT22;27815;43.410;11.852;2023-09-18T18:26:14;26.20;52.30
42147;DHT22;27815;43.410;11.852;2023-09-18T18:30:19;26.20;52.40
42147;DHT22;27815;43.410;11.852;2023-09-18T18:34:23;26.10;52.50
42147;DHT22;27815;43.410;11.852;2023-09-18T18:38:27;26.00;52.80
42147;DHT22;27815;43.410;11.852;2023-09-18T18:42:30;26.00;53.40
42147;DHT22;27815;43.410;11.852;2023-09-18T18:46:34;26.00;54.10
42147;DHT22;27815;43.410;11.852;2023-09-18T18:50:39;25.90;55.10
42147;DHT22;27815;43.410;11.852;2023-09-18T18:54:42;25.90;55.50
42147;DHT22;27815;43.410;11.852;2023-09-18T18:58:46;25.80;56.00
42147;DHT22;27815;43.410;11.852;2023-09-18T19:02:56;25.80;56.60
42147;DHT22;27815;43.410;11.852;2023-09-18T19:07:04;25.70;57.10
42147;DHT22;27815;43.410;11.852;2023-09-18T19:11:09;25.60;57.90
42147;DHT22;27815;43.410;11.852;2023-09-18T19:15:13;25.60;58.30
42147;DHT22;27815;43.410;11.852;2023-09-18T19:19:16;25.50;58.50
42147;DHT22;27815;43.410;11.852;2023-09-18T19:23:20;25.40;58.30
42147;DHT22;27815;43.410;11.852;2023-09-18T19:27:23;25.40;58.20
42147;DHT22;27815;43.410;11.852;2023-09-18T19:31:26;25.40;58.20
42147;DHT22;27815;43.410;11.852;2023-09-18T19:35:29;25.30;58.10
42147;DHT22;27815;43.410;11.852;2023-09-18T19:39:32;25.20;58.10
42147;DHT22;27815;43.410;11.852;2023-09-18T19:43:35;25.10;58.20
42147;DHT22;27815;43.410;11.852;2023-09-18T19:47:39;25.00;58.30
42147;DHT22;27815;43.410;11.852;2023-09-18T19:51:43;25.00;58.30
42147;DHT22;27815;43.410;11.852;2023-09-18T19:55:46;24.90;58.40
42147;DHT22;27815;43.410;11.852;2023-09-18T19:59:49;24.80;58.40
42147;DHT22;27815;43.410;11.852;2023-09-18T20:03:54;24.70;58.50
42147;DHT22;27815;43.410;11.852;2023-09-18T20:07:58;24.70;58.70
42147;DHT22;27815;43.410;11.852;2023-09-18T20:12:04;24.70;58.90
42147;DHT22;27815;43.410;11.852;2023-09-18T20:16:19;24.50;59.10
42147;DHT22;27815;43.410;11.852;2023-09-18T20:20:22;24.40;59.40
42147;DHT22;27815;43.410;11.852;2023-09-18T20:24:29;24.30;59.60
42147;DHT22;27815;43.410;11.852;2023-09-18T20:28:32;24.20;59.80
42147;DHT22;27815;43.410;11.852;2023-09-18T20:32:37;24.00;60.40
42147;DHT22;27815;43.410;11.852;2023-09-18T20:36:40;23.90;61.40
42147;DHT22;27815;43.410;11.852;2023-09-18T20:40:44;23.70;62.20
42147;DHT22;27815;43.410;11.852;2023-09-18T20:44:47;23.60;63.00
42147;DHT22;27815;43.410;11.852;2023-09-18T20:48:52;23.60;63.50
42147;DHT22;27815;43.410;11.852;2023-09-18T20:53:05;23.60;64.00
42147;DHT22;27815;43.410;11.852;2023-09-18T20:57:10;23.60;64.40
42147;DHT22;27815;43.410;11.852;2023-09-18T21:01:14;23.60;64.90
42147;DHT22;27815;43.410;11.852;2023-09-18T21:05:18;23.70;64.90
42147;DHT22;27815;43.410;11.852;2023-09-18T21:09:22;23.80;64.70
42147;DHT22;27815;43.410;11.852;2023-09-18T21:13:26;23.80;64.50
42147;DHT22;27815;43.410;11.852;2023-09-18T21:17:29;23.60;64.70
42147;DHT22;27815;43.410;11.852;2023-09-18T21:21:34;23.70;64.70
42147;DHT22;27815;43.410;11.852;2023-09-18T21:25:37;23.60;64.60
42147;DHT22;27815;43.410;11.852;2023-09-18T21:29:44;23.60;64.80
42147;DHT22;27815;43.410;11.852;2023-09-18T21:33:48;23.50;64.90
42147;DHT22;27815;43.410;11.852;2023-09-18T21:37:55;23.50;65.30
42147;DHT22;27815;43.410;11.852;2023-09-18T21:42:03;23.50;65.40
42147;DHT22;27815;43.410;11.852;2023-09-18T21:46:07;23.50;65.20
42147;DHT22;27815;43.410;11.852;2023-09-18T21:50:10;23.50;65.00
42147;DHT22;27815;43.410;11.852;2023-09-18T21:54:13;23.50;65.00
42147;DHT22;27815;43.410;11.852;2023-09-18T21:58:21;23.50;64.80
42147;DHT22;27815;43.410;11.852;2023-09-18T22:02:27;23.40;64.70
42147;DHT22;27815;43.410;11.852;2023-09-18T22:06:31;23.40;64.50
42147;DHT22;27815;43.410;11.852;2023-09-18T22:10:34;23.40;64.40
42147;DHT22;27815;43.410;11.852;2023-09-18T22:14:40;23.30;64.10
42147;DHT22;27815;43.410;11.852;2023-09-18T22:18:43;23.30;63.70
42147;DHT22;27815;43.410;11.852;2023-09-18T22:22:54;23.30;63.60
42147;DHT22;27815;43.410;11.852;2023-09-18T22:26:59;23.30;62.90
42147;DHT22;27815;43.410;11.852;2023-09-18T22:31:06;23.30;62.40
42147;DHT22;27815;43.410;11.852;2023-09-18T22:35:10;23.30;61.90
42147;DHT22;27815;43.410;11.852;2023-09-18T22:57:08;23.80;57.80
42147;DHT22;27815;43.410;11.852;2023-09-18T23:01:13;23.90;57.20
42147;DHT22;27815;43.410;11.852;2023-09-18T23:05:19;23.90;57.10
42147;DHT22;27815;43.410;11.852;2023-09-18T23:09:24;23.90;56.90
42147;DHT22;27815;43.410;11.852;2023-09-18T23:13:32;24.00;56.80
42147;DHT22;27815;43.410;11.852;2023-09-18T23:17:36;24.00;56.50
42147;DHT22;27815;43.410;11.852;2023-09-18T23:21:40;23.90;56.50
42147;DHT22;27815;43.410;11.852;2023-09-18T23:25:53;23.90;56.40
42147;DHT22;27815;43.410;11.852;2023-09-18T23:29:58;23.80;56.50
42147;DHT22;27815;43.410;11.852;2023-09-18T23:34:03;23.70;56.30
42147;DHT22;27815;43.410;11.852;2023-09-18T23:38:15;23.70;56.20
42147;DHT22;27815;43.410;11.852;2023-09-18T23:42:28;23.60;56.50
42147;DHT22;27815;43.410;11.852;2023-09-18T23:46:32;23.50;57.90
42147;DHT22;27815;43.410;11.852;2023-09-18T23:50:35;23.10;59.00
42147;DHT22;27815;43.410;11.852;2023-09-18T23:54:39;22.90;59.60
42147;DHT22;27815;43.410;11.852;2023-09-18T23:58:42;22.50;60.50
